createdAt,value
2016-11-10T00:00:57.596Z,99.99
2016-11-10T00:02:11.127Z,99.99
2016-11-10T00:03:23.662Z,99.99
2016-11-10T00:04:36.676Z,99.99
2016-11-10T00:05:50.271Z,99.99
2016-11-10T00:07:03.911Z,99.99
2016-11-10T00:08:16.468Z,99.99
2016-11-10T00:09:29.554Z,99.99
2016-11-10T00:10:43.289Z,99.99
2016-11-10T00:11:56.381Z,99.99
2016-11-10T00:13:10.011Z,99.99
2016-11-10T00:14:23.124Z,99.99
2016-11-10T00:15:36.737Z,99.99
2016-11-10T00:16:50.391Z,99.99
2016-11-10T00:18:03.397Z,99.99
2016-11-10T00:19:15.961Z,99.99
2016-11-10T00:20:29.071Z,99.99
2016-11-10T00:21:41.579Z,99.99
2016-11-10T00:22:54.123Z,99.99
2016-11-10T00:24:07.782Z,99.99
2016-11-10T00:25:21.388Z,99.99
2016-11-10T00:26:33.997Z,99.99
2016-11-10T00:27:47.547Z,99.99
2016-11-10T00:29:00.669Z,99.99
2016-11-10T00:30:13.720Z,99.99
2016-11-10T00:31:27.290Z,99.99
2016-11-10T00:32:39.864Z,99.99
2016-11-10T00:33:52.369Z,99.99
2016-11-10T00:35:05.393Z,99.99
2016-11-10T00:36:18.466Z,99.99
2016-11-10T00:37:31.537Z,99.99
2016-11-10T00:38:43.660Z,99.99
2016-11-10T00:39:57.267Z,99.99
2016-11-10T00:41:10.358Z,99.99
2016-11-10T00:42:24.004Z,99.99
2016-11-10T00:43:37.619Z,99.99
2016-11-10T00:44:50.827Z,99.99
2016-11-10T00:46:03.873Z,99.99
2016-11-10T00:47:16.915Z,99.99
2016-11-10T00:48:30.572Z,99.99
2016-11-10T00:49:44.180Z,99.99
2016-11-10T00:50:56.745Z,99.99
2016-11-10T00:52:08.721Z,99.99
2016-11-10T00:53:21.261Z,99.99
2016-11-10T00:54:34.839Z,99.99
2016-11-10T00:55:47.934Z,99.99
2016-11-10T00:57:01.518Z,99.99
2016-11-10T00:58:15.111Z,99.99
2016-11-10T00:59:28.753Z,99.99
2016-11-10T01:00:41.899Z,99.99
2016-11-10T01:01:55.482Z,99.99
2016-11-10T01:03:08.049Z,99.99
2016-11-10T01:04:20.058Z,99.99
2016-11-10T01:05:33.124Z,99.99
2016-11-10T01:06:45.706Z,99.99
2016-11-10T01:07:59.311Z,99.99
2016-11-10T01:09:12.368Z,99.99
2016-11-10T01:10:25.898Z,99.99
2016-11-10T01:11:38.426Z,99.99
2016-11-10T01:12:51.548Z,99.99
2016-11-10T01:14:04.561Z,99.99
2016-11-10T01:15:17.585Z,99.99
2016-11-10T01:16:30.686Z,99.99
2016-11-10T01:17:44.241Z,99.99
2016-11-10T01:18:57.742Z,99.99
2016-11-10T01:20:10.314Z,99.99
2016-11-10T01:21:23.349Z,99.99
2016-11-10T01:22:35.867Z,99.99
2016-11-10T01:23:49.004Z,99.99
2016-11-10T01:25:02.052Z,99.99
2016-11-10T01:26:14.599Z,99.99
2016-11-10T01:27:28.224Z,99.99
2016-11-10T01:28:40.701Z,99.99
2016-11-10T01:29:53.806Z,99.99
2016-11-10T01:31:07.312Z,99.99
2016-11-10T01:32:19.877Z,99.99
2016-11-10T01:33:32.995Z,99.99
2016-11-10T01:34:45.020Z,99.99
2016-11-10T01:35:58.709Z,99.99
2016-11-10T01:37:11.772Z,99.99
2016-11-10T01:38:24.898Z,99.99
2016-11-10T01:39:37.931Z,99.99
2016-11-10T01:40:50.534Z,99.99
2016-11-10T01:42:04.214Z,99.99
2016-11-10T01:43:17.808Z,99.99
2016-11-10T01:44:30.360Z,99.99
2016-11-10T01:45:44.097Z,99.99
2016-11-10T01:46:56.673Z,99.99
2016-11-10T01:48:09.711Z,99.99
2016-11-10T01:49:22.299Z,99.99
2016-11-10T01:50:35.943Z,99.99
2016-11-10T01:51:49.629Z,99.99
2016-11-10T01:53:02.102Z,99.99
2016-11-10T01:54:15.218Z,99.99
2016-11-10T01:55:28.840Z,99.99
2016-11-10T01:56:41.852Z,99.99
2016-11-10T01:57:54.931Z,99.99
2016-11-10T01:59:08.520Z,99.99
2016-11-10T02:00:22.130Z,99.99
2016-11-10T02:01:35.251Z,99.99
2016-11-10T02:02:48.894Z,99.99
2016-11-10T02:04:02.464Z,99.99
2016-11-10T02:05:15.018Z,99.99
2016-11-10T02:06:28.723Z,99.99
2016-11-10T02:07:42.382Z,99.99
2016-11-10T02:08:56.110Z,99.99
2016-11-10T02:10:09.739Z,99.99
2016-11-10T02:11:22.846Z,99.99
2016-11-10T02:12:35.964Z,99.99
2016-11-10T02:13:49.083Z,99.99
2016-11-10T02:15:02.739Z,99.99
2016-11-10T02:16:16.379Z,99.99
2016-11-10T02:17:29.970Z,99.99
2016-11-10T02:18:42.995Z,99.99
2016-11-10T02:19:56.065Z,99.99
2016-11-10T02:21:09.210Z,99.99
2016-11-10T02:22:22.719Z,99.99
2016-11-10T02:23:36.401Z,99.99
2016-11-10T02:24:48.444Z,99.99
2016-11-10T02:26:02.035Z,99.99
2016-11-10T02:27:46.661Z,99.99
2016-11-10T02:28:59.785Z,99.99
2016-11-10T02:30:12.888Z,99.99
2016-11-10T02:31:25.867Z,99.99
2016-11-10T02:32:38.416Z,99.99
2016-11-10T02:33:51.454Z,99.99
2016-11-10T02:35:04.584Z,99.99
2016-11-10T02:36:17.645Z,99.99
2016-11-10T02:37:30.667Z,99.99
2016-11-10T02:38:43.735Z,99.99
2016-11-10T02:39:57.323Z,99.99
2016-11-10T02:41:10.406Z,99.99
2016-11-10T02:42:23.530Z,99.99
2016-11-10T02:43:35.993Z,99.99
2016-11-10T02:44:49.602Z,99.99
2016-11-10T02:46:02.146Z,99.99
2016-11-10T02:47:15.723Z,99.99
2016-11-10T02:48:29.298Z,99.99
2016-11-10T02:49:41.792Z,99.99
2016-11-10T02:50:55.488Z,99.99
2016-11-10T02:52:08.548Z,99.99
2016-11-10T02:53:21.623Z,99.99
2016-11-10T02:54:35.300Z,99.99
2016-11-10T02:55:48.869Z,99.99
2016-11-10T02:57:00.929Z,99.99
2016-11-10T02:58:45.685Z,99.99
2016-11-10T02:59:59.319Z,99.99
2016-11-10T03:01:12.351Z,99.99
2016-11-10T03:02:25.483Z,99.99
2016-11-10T03:03:38.608Z,99.99
2016-11-10T03:04:51.673Z,99.99
2016-11-10T03:06:05.226Z,99.99
2016-11-10T03:07:18.317Z,99.99
2016-11-10T03:08:31.925Z,99.99
2016-11-10T03:09:45.470Z,99.99
2016-11-10T03:10:58.029Z,99.99
2016-11-10T03:12:11.075Z,99.99
2016-11-10T03:13:23.645Z,99.99
2016-11-10T03:14:36.727Z,99.99
2016-11-10T03:15:49.880Z,99.99
2016-11-10T03:17:02.899Z,99.99
2016-11-10T03:18:15.404Z,99.99
2016-11-10T03:20:00.148Z,99.99
2016-11-10T03:21:13.182Z,99.99
2016-11-10T03:22:26.790Z,99.99
2016-11-10T03:23:40.431Z,99.99
2016-11-10T03:24:53.495Z,99.99
2016-11-10T03:26:06.080Z,99.99
2016-11-10T03:27:19.180Z,99.99
2016-11-10T03:28:32.782Z,99.99
2016-11-10T03:29:46.381Z,99.99
2016-11-10T03:30:58.954Z,99.99
2016-11-10T03:32:27.206Z,99.99
2016-11-10T03:33:40.680Z,99.99
2016-11-10T03:34:54.233Z,99.99
2016-11-10T03:36:07.252Z,99.99
2016-11-10T03:37:20.779Z,99.99
2016-11-10T03:38:33.886Z,99.99
2016-11-10T03:39:46.912Z,99.99
2016-11-10T03:41:00.438Z,99.99
2016-11-10T03:42:12.995Z,99.99
2016-11-10T03:43:26.067Z,99.99
2016-11-10T03:44:38.596Z,99.99
2016-11-10T03:45:51.681Z,99.99
2016-11-10T03:47:05.245Z,99.99
2016-11-10T03:48:18.278Z,99.99
2016-11-10T03:49:31.885Z,99.99
2016-11-10T03:50:45.551Z,99.99
2016-11-10T03:51:58.591Z,99.99
2016-11-10T03:53:11.605Z,99.99
2016-11-10T03:54:25.164Z,99.99
2016-11-10T03:55:38.248Z,99.99
2016-11-10T03:56:51.788Z,99.99
2016-11-10T03:58:05.315Z,99.99
2016-11-10T03:59:18.411Z,99.99
2016-11-10T04:00:31.379Z,99.99
2016-11-10T04:01:44.445Z,99.99
2016-11-10T04:02:56.414Z,99.99
2016-11-10T04:04:09.464Z,99.99
2016-11-10T04:05:23.045Z,99.99
2016-11-10T04:06:36.555Z,99.99
2016-11-10T04:07:49.616Z,99.99
2016-11-10T04:09:03.124Z,99.99
2016-11-10T04:10:16.627Z,99.99
2016-11-10T04:11:30.267Z,99.99
2016-11-10T04:12:43.792Z,99.99
2016-11-10T04:13:56.744Z,99.99
2016-11-10T04:15:09.880Z,99.99
2016-11-10T04:16:23.421Z,99.99
2016-11-10T04:17:37.007Z,99.99
2016-11-10T04:18:49.517Z,99.99
2016-11-10T04:20:03.071Z,99.99
2016-11-10T04:21:15.515Z,99.99
2016-11-10T04:22:28.564Z,99.99
2016-11-10T04:23:42.078Z,99.99
2016-11-10T04:24:54.548Z,99.99
2016-11-10T04:26:08.115Z,99.99
2016-11-10T04:27:21.067Z,99.99
2016-11-10T04:28:34.652Z,99.99
2016-11-10T04:29:47.242Z,99.99
2016-11-10T04:31:00.857Z,99.99
2016-11-10T04:32:14.386Z,99.99
2016-11-10T04:33:26.909Z,99.99
2016-11-10T04:34:40.589Z,99.99
2016-11-10T04:35:53.587Z,99.99
2016-11-10T04:37:07.158Z,99.99
2016-11-10T04:38:20.732Z,99.99
2016-11-10T04:39:33.748Z,99.99
2016-11-10T04:40:46.773Z,99.99
2016-11-10T04:41:59.885Z,99.99
2016-11-10T04:43:12.990Z,99.99
2016-11-10T04:44:26.523Z,99.99
2016-11-10T04:45:39.086Z,99.99
2016-11-10T04:46:52.697Z,99.99
2016-11-10T04:48:06.213Z,99.99
2016-11-10T04:49:19.717Z,99.99
2016-11-10T04:50:33.331Z,99.99
2016-11-10T04:51:46.359Z,99.99
2016-11-10T04:52:58.379Z,99.99
2016-11-10T04:54:10.875Z,99.99
2016-11-10T04:55:23.875Z,99.99
2016-11-10T04:56:36.909Z,99.99
2016-11-10T04:57:50.455Z,99.99
2016-11-10T04:59:03.946Z,99.99
2016-11-10T05:00:17.523Z,99.99
2016-11-10T05:01:30.491Z,99.99
2016-11-10T05:02:44.068Z,99.99
2016-11-10T05:04:28.712Z,99.99
2016-11-10T05:05:42.274Z,99.99
2016-11-10T05:06:55.831Z,99.99
2016-11-10T05:08:09.424Z,99.99
2016-11-10T05:09:22.979Z,99.99
2016-11-10T05:10:36.012Z,99.99
2016-11-10T05:11:49.049Z,99.99
2016-11-10T05:13:02.644Z,99.99
2016-11-10T05:14:15.646Z,99.99
2016-11-10T05:15:28.176Z,99.99
2016-11-10T05:16:40.157Z,99.99
2016-11-10T05:17:53.229Z,99.99
2016-11-10T05:19:06.848Z,99.99
2016-11-10T05:20:20.493Z,99.99
2016-11-10T05:21:33.485Z,99.99
2016-11-10T05:22:47.090Z,99.99
2016-11-10T05:24:00.200Z,99.99
2016-11-10T05:25:13.752Z,99.99
2016-11-10T05:26:26.296Z,99.99
2016-11-10T05:27:39.807Z,99.99
2016-11-10T05:28:52.862Z,99.99
2016-11-10T05:30:05.991Z,99.99
2016-11-10T05:31:19.527Z,99.99
2016-11-10T05:32:33.085Z,99.99
2016-11-10T05:33:45.678Z,99.99
2016-11-10T05:34:59.220Z,99.99
2016-11-10T05:36:12.356Z,99.99
2016-11-10T05:37:24.847Z,99.99
2016-11-10T05:38:38.456Z,99.99
2016-11-10T05:39:52.005Z,99.99
2016-11-10T05:41:05.051Z,99.99
2016-11-10T05:42:18.620Z,99.99
2016-11-10T05:43:31.105Z,99.99
2016-11-10T05:44:44.219Z,99.99
2016-11-10T05:45:57.261Z,99.99
2016-11-10T05:47:09.694Z,99.99
2016-11-10T05:48:22.760Z,99.99
2016-11-10T05:49:35.862Z,99.99
2016-11-10T05:50:48.922Z,99.99
2016-11-10T05:52:02.564Z,99.99
2016-11-10T05:53:16.161Z,99.99
2016-11-10T05:54:29.256Z,99.99
2016-11-10T05:55:42.297Z,99.99
2016-11-10T05:56:55.858Z,99.99
2016-11-10T05:58:09.490Z,99.99
2016-11-10T05:59:22.061Z,99.99
2016-11-10T06:00:35.621Z,99.99
2016-11-10T06:01:48.113Z,99.99
2016-11-10T06:03:00.686Z,99.99
2016-11-10T06:04:14.210Z,99.99
2016-11-10T06:05:27.806Z,99.99
2016-11-10T06:06:41.380Z,99.99
2016-11-10T06:07:54.414Z,99.99
2016-11-10T06:09:07.425Z,99.99
2016-11-10T06:10:20.437Z,99.99
2016-11-10T06:11:33.406Z,99.99
2016-11-10T06:12:46.499Z,99.99
2016-11-10T06:13:59.046Z,99.99
2016-11-10T06:15:11.523Z,99.99
2016-11-10T06:16:25.093Z,99.99
2016-11-10T06:17:38.710Z,99.99
2016-11-10T06:18:52.295Z,99.99
2016-11-10T06:20:04.737Z,99.99
2016-11-10T06:21:17.835Z,99.99
2016-11-10T06:22:31.440Z,99.99
2016-11-10T06:23:44.523Z,99.99
2016-11-10T06:24:57.496Z,99.99
2016-11-10T06:26:10.110Z,99.99
2016-11-10T06:27:22.670Z,99.99
2016-11-10T06:28:35.776Z,99.99
2016-11-10T06:29:49.355Z,99.99
2016-11-10T06:31:01.802Z,99.99
2016-11-10T06:32:14.929Z,99.99
2016-11-10T06:33:27.944Z,99.99
2016-11-10T06:34:40.429Z,99.99
2016-11-10T06:35:53.457Z,99.99
2016-11-10T06:37:05.490Z,99.99
2016-11-10T06:38:17.453Z,99.99
2016-11-10T06:39:30.473Z,99.99
2016-11-10T06:40:44.001Z,99.99
2016-11-10T06:41:57.043Z,99.99
2016-11-10T06:43:09.518Z,99.99
2016-11-10T06:44:22.059Z,99.99
2016-11-10T06:45:34.070Z,99.99
2016-11-10T06:46:47.162Z,99.99
2016-11-10T06:47:59.640Z,99.99
2016-11-10T06:49:42.737Z,99.99
2016-11-10T06:50:56.411Z,99.99
2016-11-10T06:52:09.420Z,99.99
2016-11-10T06:53:22.528Z,99.99
2016-11-10T06:54:36.111Z,99.99
2016-11-10T06:55:47.573Z,99.99
2016-11-10T06:57:01.148Z,99.99
2016-11-10T06:58:14.219Z,99.99
2016-11-10T06:59:27.858Z,99.99
2016-11-10T07:00:40.933Z,99.99
2016-11-10T07:01:54.460Z,99.99
2016-11-10T07:03:07.446Z,99.99
2016-11-10T07:04:20.521Z,99.99
2016-11-10T07:05:34.038Z,99.99
2016-11-10T07:06:47.590Z,99.99
2016-11-10T07:08:01.140Z,99.99
2016-11-10T07:09:13.702Z,99.99
2016-11-10T07:10:26.272Z,99.99
2016-11-10T07:11:39.299Z,99.99
2016-11-10T07:12:51.747Z,99.99
2016-11-10T07:14:04.275Z,99.99
2016-11-10T07:15:17.911Z,99.99
2016-11-10T07:16:31.494Z,99.99
2016-11-10T07:17:43.982Z,99.99
2016-11-10T07:18:57.533Z,99.99
2016-11-10T07:20:10.602Z,99.99
2016-11-10T07:21:23.132Z,99.99
2016-11-10T07:22:36.684Z,99.99
2016-11-10T07:23:49.843Z,99.99
2016-11-10T07:25:03.417Z,99.99
2016-11-10T07:26:16.412Z,99.99
2016-11-10T07:27:29.491Z,99.99
2016-11-10T07:28:42.483Z,99.99
2016-11-10T07:29:55.453Z,99.99
2016-11-10T07:31:08.985Z,99.99
2016-11-10T07:32:22.008Z,99.99
2016-11-10T07:33:35.075Z,99.99
2016-11-10T07:34:47.558Z,99.99
2016-11-10T07:36:01.115Z,99.99
2016-11-10T07:37:14.155Z,99.99
2016-11-10T07:38:27.730Z,99.99
2016-11-10T07:39:40.866Z,99.99
2016-11-10T07:40:54.434Z,99.99
2016-11-10T07:42:07.446Z,99.99
2016-11-10T07:43:20.496Z,99.99
2016-11-10T07:44:34.108Z,99.99
2016-11-10T07:45:47.169Z,99.99
2016-11-10T07:47:00.667Z,99.99
2016-11-10T07:48:14.305Z,99.99
2016-11-10T07:49:27.320Z,99.99
2016-11-10T07:50:40.294Z,99.99
2016-11-10T07:51:53.861Z,99.99
2016-11-10T07:53:06.978Z,99.99
2016-11-10T07:54:20.025Z,99.99
2016-11-10T07:55:33.088Z,99.99
2016-11-10T07:56:46.705Z,99.99
2016-11-10T07:57:59.719Z,99.99
2016-11-10T07:59:12.706Z,99.99
2016-11-10T08:00:25.779Z,99.99
2016-11-10T08:01:38.304Z,99.99
2016-11-10T08:02:51.349Z,99.99
2016-11-10T08:04:04.909Z,99.99
2016-11-10T08:05:18.454Z,99.99
2016-11-10T08:06:31.970Z,99.99
2016-11-10T08:07:45.046Z,99.99
2016-11-10T08:08:58.601Z,99.99
2016-11-10T08:10:12.155Z,99.99
2016-11-10T08:11:25.862Z,99.99
2016-11-10T08:12:38.905Z,99.99
2016-11-10T08:13:51.987Z,99.99
2016-11-10T08:15:05.523Z,99.99
2016-11-10T08:16:18.585Z,99.99
2016-11-10T08:17:32.159Z,99.99
2016-11-10T08:18:45.821Z,99.99
2016-11-10T08:19:58.819Z,99.99
2016-11-10T08:21:12.425Z,99.99
2016-11-10T08:22:25.501Z,99.99
2016-11-10T08:23:39.012Z,99.99
2016-11-10T08:24:52.530Z,99.99
2016-11-10T08:26:05.635Z,99.99
2016-11-10T08:27:19.142Z,99.99
2016-11-10T08:28:32.713Z,99.99
2016-11-10T08:29:46.411Z,99.99
2016-11-10T08:30:58.964Z,99.99
2016-11-10T08:32:11.964Z,99.99
2016-11-10T08:33:25.022Z,99.99
2016-11-10T08:34:38.590Z,99.99
2016-11-10T08:35:51.670Z,99.99
2016-11-10T08:37:04.705Z,99.99
2016-11-10T08:38:18.310Z,99.99
2016-11-10T08:39:31.416Z,99.99
2016-11-10T08:40:44.438Z,99.99
2016-11-10T08:41:58.088Z,99.99
2016-11-10T08:43:10.645Z,99.99
2016-11-10T08:44:24.231Z,99.99
2016-11-10T08:45:36.745Z,99.99
2016-11-10T08:46:50.394Z,99.99
2016-11-10T08:48:02.431Z,99.99
2016-11-10T08:49:16.034Z,99.99
2016-11-10T08:50:29.107Z,99.99
2016-11-10T08:51:42.175Z,99.99
2016-11-10T08:52:55.734Z,99.99
2016-11-10T08:54:08.257Z,99.99
2016-11-10T08:55:20.292Z,99.99
2016-11-10T08:56:33.926Z,99.99
2016-11-10T08:57:47.532Z,99.98
2016-11-10T08:59:00.598Z,99.4
2016-11-10T09:00:14.285Z,99.55
2016-11-10T09:01:26.851Z,98.39
2016-11-10T09:02:39.335Z,98.1
2016-11-10T09:03:52.928Z,96.8
2016-11-10T09:05:05.983Z,96.89
2016-11-10T09:06:19.609Z,96.08
2016-11-10T09:07:31.609Z,95.98
2016-11-10T09:08:44.174Z,95.5
2016-11-10T09:10:28.343Z,95.21
2016-11-10T09:11:41.476Z,94.34
2016-11-10T09:12:54.074Z,93.42
2016-11-10T09:14:07.654Z,93.23
2016-11-10T09:15:20.181Z,92.55
2016-11-10T09:16:33.819Z,91.88
2016-11-10T09:17:46.932Z,92.31
2016-11-10T09:18:59.968Z,90.86
2016-11-10T09:20:12.565Z,90.77
2016-11-10T09:21:26.196Z,90.03
2016-11-10T09:22:39.212Z,89.45
2016-11-10T09:23:52.869Z,88.78
2016-11-10T09:25:05.974Z,88.15
2016-11-10T09:26:19.592Z,87.99
2016-11-10T09:27:32.726Z,87.13
2016-11-10T09:28:46.399Z,87.23
2016-11-10T09:30:00.038Z,86.93
2016-11-10T09:31:13.633Z,86.83
2016-11-10T09:32:26.698Z,87.13
2016-11-10T09:33:39.856Z,86.25
2016-11-10T09:34:52.984Z,85.48
2016-11-10T09:36:06.578Z,85.19
2016-11-10T09:37:20.144Z,84.75
2016-11-10T09:38:33.244Z,84.94
2016-11-10T09:39:46.938Z,84.84
2016-11-10T09:41:00.609Z,84.17
2016-11-10T09:42:13.694Z,84.27
2016-11-10T09:43:26.192Z,84.17
2016-11-10T09:44:39.837Z,83.4
2016-11-10T09:45:53.503Z,83.01
2016-11-10T09:47:06.681Z,83.11
2016-11-10T09:48:19.783Z,81.89
2016-11-10T09:49:32.938Z,82.22
2016-11-10T09:50:46.024Z,81.45
2016-11-10T09:51:59.137Z,80.87
2016-11-10T09:53:11.117Z,80.47
2016-11-10T09:54:24.719Z,80.22
2016-11-10T09:55:37.827Z,80.22
2016-11-10T09:56:51.420Z,79.93
2016-11-10T09:58:04.943Z,79.55
2016-11-10T09:59:18.534Z,79.2
2016-11-10T10:00:31.600Z,79
2016-11-10T10:01:45.189Z,78.61
2016-11-10T10:02:58.348Z,78.03
2016-11-10T10:04:11.393Z,77.59
2016-11-10T10:05:23.418Z,77.69
2016-11-10T10:06:36.477Z,77.78
2016-11-10T10:07:50.107Z,77.01
2016-11-10T10:09:03.217Z,76.62
2016-11-10T10:10:16.331Z,76.37
2016-11-10T10:11:29.366Z,75.88
2016-11-10T10:12:42.987Z,75.78
2016-11-10T10:13:56.648Z,75.2
2016-11-10T10:15:10.253Z,75.49
2016-11-10T10:16:23.348Z,75.14
2016-11-10T10:17:36.981Z,74.27
2016-11-10T10:18:50.124Z,74.37
2016-11-10T10:20:02.729Z,74.56
2016-11-10T10:21:16.422Z,75.04
2016-11-10T10:22:28.986Z,75.4
2016-11-10T10:23:42.074Z,75.1
2016-11-10T10:24:54.596Z,74.65
2016-11-10T10:26:06.666Z,74.37
2016-11-10T10:27:19.161Z,74.3
2016-11-10T10:28:32.924Z,73.24
2016-11-10T10:29:46.621Z,73.62
2016-11-10T10:30:59.742Z,73.46
2016-11-10T10:32:12.873Z,72.59
2016-11-10T10:33:26.646Z,72.43
2016-11-10T10:34:39.213Z,72.2
2016-11-10T10:35:52.409Z,72.49
2016-11-10T10:37:05.570Z,73.18
2016-11-10T10:38:19.168Z,73.43
2016-11-10T10:39:32.230Z,73.24
2016-11-10T10:41:16.975Z,73.24
2016-11-10T10:42:28.933Z,73.62
2016-11-10T10:43:41.550Z,72.78
2016-11-10T10:44:54.669Z,71.85
2016-11-10T10:46:07.665Z,71.2
2016-11-10T10:47:20.664Z,69.97
2016-11-10T10:48:34.224Z,70.36
2016-11-10T10:49:47.401Z,70.04
2016-11-10T10:51:00.840Z,69.78
2016-11-10T10:52:13.420Z,69.2
2016-11-10T10:53:27.090Z,68.74
2016-11-10T10:54:39.669Z,68.55
2016-11-10T10:55:53.316Z,68.45
2016-11-10T10:57:06.441Z,68.8
2016-11-10T10:58:20.124Z,68.71
2016-11-10T10:59:33.799Z,68.74
2016-11-10T11:00:46.916Z,67.77
2016-11-10T11:02:00.046Z,67.67
2016-11-10T11:03:13.642Z,67.77
2016-11-10T11:04:26.704Z,68.06
2016-11-10T11:05:40.350Z,69
2016-11-10T11:06:53.947Z,68.9
2016-11-10T11:08:07.060Z,68.8
2016-11-10T11:09:19.076Z,68.51
2016-11-10T11:10:31.116Z,68.41
2016-11-10T11:11:44.838Z,68.51
2016-11-10T11:12:57.987Z,68.32
2016-11-10T11:14:11.616Z,68.26
2016-11-10T11:15:24.716Z,67.67
2016-11-10T11:16:37.843Z,68.35
2016-11-10T11:17:51.433Z,68.26
2016-11-10T11:19:03.494Z,68.16
2016-11-10T11:20:17.084Z,68.26
2016-11-10T11:21:30.214Z,67.9
2016-11-10T11:22:43.349Z,67.77
2016-11-10T11:23:57.039Z,67.99
2016-11-10T11:25:10.711Z,67.5
2016-11-10T11:26:23.769Z,68.06
2016-11-10T11:27:37.334Z,68.26
2016-11-10T11:28:51.003Z,68.45
2016-11-10T11:30:03.999Z,68.55
2016-11-10T11:31:17.101Z,68.55
2016-11-10T11:32:30.793Z,68.35
2016-11-10T11:33:44.374Z,68.64
2016-11-10T11:34:56.978Z,68.06
2016-11-10T11:36:10.015Z,67.32
2016-11-10T11:37:23.682Z,67.05
2016-11-10T11:38:37.281Z,66.96
2016-11-10T11:39:50.903Z,66.47
2016-11-10T11:41:04.022Z,66.41
2016-11-10T11:42:17.681Z,66.99
2016-11-10T11:43:31.324Z,66.96
2016-11-10T11:44:44.356Z,66.86
2016-11-10T11:45:57.402Z,67.64
2016-11-10T11:47:10.563Z,67.25
2016-11-10T11:48:24.172Z,67.54
2016-11-10T11:49:37.272Z,67.54
2016-11-10T11:50:50.982Z,67.54
2016-11-10T11:52:04.039Z,67.35
2016-11-10T11:53:17.698Z,67.99
2016-11-10T11:54:30.182Z,67.99
2016-11-10T11:55:43.867Z,68.71
2016-11-10T11:56:57.015Z,67.8
2016-11-10T11:58:10.668Z,67.8
2016-11-10T11:59:24.332Z,67.7
2016-11-10T12:00:37.981Z,67.99
2016-11-10T12:01:51.054Z,67.54
2016-11-10T12:03:04.140Z,67.25
2016-11-10T12:04:17.756Z,67.25
2016-11-10T12:05:30.821Z,68.03
2016-11-10T12:06:44.531Z,67.74
2016-11-10T12:07:58.182Z,67.64
2016-11-10T12:09:11.240Z,67.44
2016-11-10T12:10:24.303Z,68.03
2016-11-10T12:11:37.926Z,68.29
2016-11-10T12:12:50.994Z,68.09
2016-11-10T12:14:04.112Z,67.7
2016-11-10T12:15:17.291Z,67.99
2016-11-10T12:16:30.817Z,67.25
2016-11-10T12:17:44.495Z,67.35
2016-11-10T12:18:58.135Z,68.23
2016-11-10T12:20:11.781Z,68.13
2016-11-10T12:21:24.905Z,67.7
2016-11-10T12:22:38.529Z,68.06
2016-11-10T12:23:52.103Z,67.96
2016-11-10T12:25:05.735Z,68.16
2016-11-10T12:26:18.795Z,67.67
2016-11-10T12:27:31.906Z,67.38
2016-11-10T12:28:45.060Z,67.28
2016-11-10T12:29:58.662Z,67.12
2016-11-10T12:31:11.760Z,66.27
2016-11-10T12:32:25.382Z,66.08
2016-11-10T12:33:38.533Z,66.56
2016-11-10T12:34:51.640Z,67.15
2016-11-10T12:36:04.163Z,68.09
2016-11-10T12:37:17.822Z,68.09
2016-11-10T12:38:31.473Z,67.35
2016-11-10T12:39:45.068Z,67.22
2016-11-10T12:40:58.678Z,67.15
2016-11-10T12:42:12.329Z,67.05
2016-11-10T12:43:25.418Z,67.64
2016-11-10T12:44:38.544Z,66.93
2016-11-10T12:45:51.651Z,66.66
2016-11-10T12:47:04.686Z,66.31
2016-11-10T12:48:17.783Z,66.21
2016-11-10T12:49:30.871Z,66.21
2016-11-10T12:50:43.463Z,66.96
2016-11-10T12:51:57.109Z,67.15
2016-11-10T12:53:10.273Z,66.96
2016-11-10T12:54:23.400Z,67.44
2016-11-10T12:55:37.201Z,68.19
2016-11-10T12:56:50.791Z,68.35
2016-11-10T12:58:04.063Z,68.09
2016-11-10T12:59:16.583Z,67.99
2016-11-10T13:00:29.707Z,68.09
2016-11-10T13:01:43.259Z,67.8
2016-11-10T13:02:55.764Z,68.09
2016-11-10T13:04:09.407Z,68.74
2016-11-10T13:05:22.499Z,68.74
2016-11-10T13:06:35.525Z,68.74
2016-11-10T13:07:49.467Z,68.84
2016-11-10T13:09:02.722Z,68.74
2016-11-10T13:10:16.429Z,67.99
2016-11-10T13:11:29.450Z,66.76
2016-11-10T13:12:41.984Z,66.79
2016-11-10T13:13:54.639Z,66.24
2016-11-10T13:15:08.264Z,65.36
2016-11-10T13:16:21.857Z,64.9
2016-11-10T13:17:34.995Z,65.36
2016-11-10T13:18:48.072Z,66.24
2016-11-10T13:20:01.754Z,66.11
2016-11-10T13:21:14.270Z,66.05
2016-11-10T13:22:27.871Z,65.56
2016-11-10T13:23:40.903Z,65.49
2016-11-10T13:24:53.446Z,64.75
2016-11-10T13:26:07.019Z,65.23
2016-11-10T13:27:20.022Z,65.49
2016-11-10T13:28:33.096Z,65.1
2016-11-10T13:29:46.705Z,65.1
2016-11-10T13:30:59.769Z,64.55
2016-11-10T13:32:12.846Z,64.16
2016-11-10T13:33:25.913Z,63.6
2016-11-10T13:34:38.991Z,63.9
2016-11-10T13:35:52.575Z,63.34
2016-11-10T13:37:06.221Z,62.56
2016-11-10T13:38:19.265Z,62.76
2016-11-10T13:39:32.967Z,61.9
2016-11-10T13:40:46.571Z,62.79
2016-11-10T13:42:00.200Z,63.28
2016-11-10T13:43:12.769Z,63.28
2016-11-10T13:44:24.295Z,62.95
2016-11-10T13:45:37.851Z,63.64
2016-11-10T13:46:50.906Z,63.7
2016-11-10T13:48:04.630Z,63.24
2016-11-10T13:49:17.731Z,63.15
2016-11-10T13:50:31.334Z,63.15
2016-11-10T13:51:44.489Z,63.28
2016-11-10T13:52:58.164Z,63.57
2016-11-10T13:54:11.814Z,64.12
2016-11-10T13:55:24.856Z,64.48
2016-11-10T13:56:38.419Z,64.97
2016-11-10T13:57:51.541Z,65.85
2016-11-10T13:59:04.071Z,64.29
2016-11-10T14:00:17.678Z,64.58
2016-11-10T14:01:29.629Z,64.97
2016-11-10T14:02:42.765Z,65.46
2016-11-10T14:03:55.878Z,64.78
2016-11-10T14:05:09.744Z,65.75
2016-11-10T14:06:22.748Z,65.92
2016-11-10T14:07:36.517Z,65.63
2016-11-10T14:08:50.147Z,65.92
2016-11-10T14:10:03.253Z,66.8
2016-11-10T14:11:16.986Z,66.37
2016-11-10T14:12:30.051Z,67.05
2016-11-10T14:13:43.053Z,67.25
2016-11-10T14:14:56.629Z,68.03
2016-11-10T14:16:10.260Z,68.1
2016-11-10T14:17:23.968Z,68.29
2016-11-10T14:18:36.494Z,68.74
2016-11-10T14:19:49.535Z,68.84
2016-11-10T14:21:02.627Z,69.36
2016-11-10T14:22:16.249Z,69.07
2016-11-10T14:23:29.298Z,68.77
2016-11-10T14:24:42.372Z,68.87
2016-11-10T14:25:55.921Z,69.17
2016-11-10T14:27:09.033Z,69.26
2016-11-10T14:28:21.607Z,69.56
2016-11-10T14:29:34.226Z,69.17
2016-11-10T14:30:47.288Z,68.94
2016-11-10T14:32:00.936Z,69.46
2016-11-10T14:34:58.234Z,69.07
2016-11-10T14:36:11.306Z,69.23
2016-11-10T14:37:24.966Z,69.82
2016-11-10T14:38:38.079Z,70.66
2016-11-10T14:39:51.620Z,70.95
2016-11-10T14:41:04.714Z,71.05
2016-11-10T14:42:18.236Z,71.44
2016-11-10T14:43:30.237Z,71.25
2016-11-10T14:44:43.353Z,71.15
2016-11-10T14:45:55.414Z,70.95
2016-11-10T14:47:08.537Z,71.08
2016-11-10T14:48:22.146Z,70.79
2016-11-10T14:49:34.175Z,70.21
2016-11-10T14:50:47.286Z,70.47
2016-11-10T14:52:00.418Z,70.27
2016-11-10T14:53:14.124Z,70.95
2016-11-10T14:54:27.802Z,71.83
2016-11-10T14:55:41.404Z,71.34
2016-11-10T14:56:53.936Z,70.86
2016-11-10T14:58:07.665Z,71.73
2016-11-10T14:59:20.753Z,71.25
2016-11-10T15:00:34.382Z,70.86
2016-11-10T15:01:47.509Z,71.83
2016-11-10T15:03:00.621Z,70.76
2016-11-10T15:04:14.147Z,70.98
2016-11-10T15:05:27.643Z,70.21
2016-11-10T15:06:41.169Z,70.11
2016-11-10T15:07:54.817Z,70.89
2016-11-10T15:09:07.889Z,70.98
2016-11-10T15:10:21.563Z,71.28
2016-11-10T15:11:35.230Z,71.18
2016-11-10T15:12:48.361Z,71.08
2016-11-10T15:14:02.004Z,70.43
2016-11-10T15:15:15.073Z,70.24
2016-11-10T15:16:28.647Z,70.98
2016-11-10T15:17:42.205Z,70.79
2016-11-10T15:18:55.331Z,70.98
2016-11-10T15:20:08.933Z,71.37
2016-11-10T15:21:22.518Z,70.98
2016-11-10T15:22:35.603Z,70.89
2016-11-10T15:23:48.166Z,71.08
2016-11-10T15:25:01.320Z,70.89
2016-11-10T15:26:13.339Z,70.7
2016-11-10T15:27:26.470Z,70.89
2016-11-10T15:28:39.593Z,70.98
2016-11-10T15:29:53.166Z,71.77
2016-11-10T15:31:06.203Z,72.02
2016-11-10T15:32:19.832Z,71.92
2016-11-10T15:33:33.559Z,71.08
2016-11-10T15:34:47.205Z,70.89
2016-11-10T15:35:59.762Z,70.89
2016-11-10T15:37:12.860Z,71.18
2016-11-10T15:38:25.903Z,71.08
2016-11-10T15:39:38.443Z,71.28
2016-11-10T15:40:52.069Z,70.98
2016-11-10T15:42:05.660Z,70.89
2016-11-10T15:43:19.289Z,71.25
2016-11-10T15:44:32.952Z,71.6
2016-11-10T15:45:45.957Z,72.09
2016-11-10T15:46:59.022Z,72.09
2016-11-10T15:48:12.154Z,71.89
2016-11-10T15:49:56.369Z,71.5
2016-11-10T15:51:10.042Z,71.41